createdAt,value
2022-10-23T00:00:39.565Z,101430.25
2022-10-23T00:03:06.566Z,101427.91
2022-10-23T00:05:33.809Z,101426.06
2022-10-23T00:08:00.840Z,101423.56
2022-10-23T00:10:28.448Z,101419.03
2022-10-23T00:12:55.005Z,101418.88
2022-10-23T00:15:22.949Z,101409.97
2022-10-23T00:17:49.622Z,101412.50
2022-10-23T00:20:17.425Z,101402.06
2022-10-23T00:22:44.016Z,101396.50
2022-10-23T00:25:10.979Z,101400.34
2022-10-23T00:27:37.714Z,101398.97
2022-10-23T00:30:05.779Z,101397.13
2022-10-23T00:35:04.770Z,101400.72
2022-10-23T00:37:31.433Z,101405.88
2022-10-23T00:39:58.189Z,101403.97
2022-10-23T00:42:27.130Z,101413.69
2022-10-23T00:45:14.103Z,101407.09
2022-10-23T00:47:40.749Z,101395.91
2022-10-23T00:50:07.650Z,101394.34
2022-10-23T00:52:37.732Z,101386.50
2022-10-23T00:55:04.894Z,101371.22
2022-10-23T00:57:31.612Z,101356.69
2022-10-23T00:59:58.201Z,101353.81
2022-10-23T01:02:24.897Z,101353.34
2022-10-23T01:04:51.686Z,101352.78
2022-10-23T01:07:27.108Z,101350.13
2022-10-23T01:10:14.661Z,101343.00
2022-10-23T01:13:19.677Z,101333.38
2022-10-23T01:15:54.184Z,101331.44
2022-10-23T01:18:40.873Z,101320.59
2022-10-23T01:21:15.338Z,101306.25
2022-10-23T01:23:53.345Z,101301.25
2022-10-23T01:26:29.910Z,101300.50
2022-10-23T01:29:03.240Z,101296.78
2022-10-23T01:31:37.353Z,101289.31
2022-10-23T01:34:10.207Z,101283.59
2022-10-23T01:36:42.219Z,101280.28
2022-10-23T01:39:12.508Z,101273.13
2022-10-23T01:41:47.479Z,101273.50
2022-10-23T01:44:22.343Z,101273.13
2022-10-23T01:46:50.099Z,101268.25
2022-10-23T01:49:17.792Z,101277.00
2022-10-23T01:51:49.949Z,101286.56
2022-10-23T01:54:17.429Z,101279.34
2022-10-23T01:56:47.298Z,101280.28
2022-10-23T01:59:17.103Z,101268.50
2022-10-23T02:01:46.715Z,101262.16
2022-10-23T02:04:17.724Z,101264.63
2022-10-23T02:06:44.307Z,101265.94
2022-10-23T02:09:11.219Z,101263.34
2022-10-23T02:11:51.077Z,101262.03
2022-10-23T02:14:44.484Z,101254.72
2022-10-23T02:17:36.863Z,101247.50
2022-10-23T02:20:14.215Z,101237.72
2022-10-23T02:22:46.223Z,101240.69
2022-10-23T02:25:19.808Z,101232.16
2022-10-23T02:27:50.917Z,101233.75
2022-10-23T02:30:19.823Z,101229.69
2022-10-23T02:32:54.498Z,101224.88
2022-10-23T02:35:23.687Z,101217.00
2022-10-23T02:37:59.987Z,101219.47
2022-10-23T02:40:36.718Z,101217.53
2022-10-23T02:43:11.179Z,101229.69
2022-10-23T02:45:46.558Z,101218.47
2022-10-23T02:48:19.442Z,101222.91
2022-10-23T02:50:54.429Z,101217.09
2022-10-23T02:53:42.414Z,101230.50
2022-10-23T02:56:45.474Z,101217.00
2022-10-23T02:59:18.078Z,101206.19
2022-10-23T03:01:53.038Z,101216.50
2022-10-23T03:04:24.161Z,101223.09
2022-10-23T03:06:51.458Z,101218.38
2022-10-23T03:09:18.604Z,101213.75
2022-10-23T03:11:45.318Z,101216.44
2022-10-23T03:14:13.267Z,101214.88
2022-10-23T03:16:39.814Z,101215.53
2022-10-23T03:19:08.872Z,101213.97
2022-10-23T03:21:35.656Z,101209.78
2022-10-23T03:24:06.178Z,101207.66
2022-10-23T03:26:37.957Z,101199.06
2022-10-23T03:29:04.712Z,101197.94
2022-10-23T03:31:31.358Z,101200.81
2022-10-23T03:33:59.788Z,101203.88
2022-10-23T03:36:26.362Z,101200.06
2022-10-23T03:38:53.313Z,101200.34
2022-10-23T03:41:20.798Z,101204.97
2022-10-23T03:43:47.612Z,101202.94
2022-10-23T03:46:14.258Z,101215.16
2022-10-23T03:48:42.022Z,101212.56
2022-10-23T03:51:08.613Z,101224.69
2022-10-23T03:53:35.218Z,101216.91
2022-10-23T03:56:04.548Z,101210.63
2022-10-23T03:58:33.168Z,101208.13
2022-10-23T04:00:59.865Z,101208.13
2022-10-23T04:03:27.391Z,101206.47
2022-10-23T04:05:54.007Z,101212.75
2022-10-23T04:08:22.298Z,101219.84
2022-10-23T04:10:51.980Z,101223.47
2022-10-23T04:13:23.807Z,101212.25
2022-10-23T04:15:52.091Z,101209.31
2022-10-23T04:18:18.786Z,101201.63
2022-10-23T04:20:51.281Z,101199.81
2022-10-23T04:23:18.190Z,101186.28
2022-10-23T04:28:14.334Z,101203.41
2022-10-23T04:30:41.684Z,101199.81
2022-10-23T04:33:10.598Z,101177.97
2022-10-23T04:35:37.388Z,101182.78
2022-10-23T04:38:04.008Z,101184.34
2022-10-23T04:40:34.146Z,101192.94
2022-10-23T04:43:00.835Z,101183.34
2022-10-23T04:45:31.725Z,101194.59
2022-10-23T04:47:58.324Z,101195.19
2022-10-23T04:50:25.538Z,101201.16
2022-10-23T04:53:27.041Z,101194.78
2022-10-23T04:56:22.940Z,101198.94
2022-10-23T04:58:55.290Z,101190.63
2022-10-23T05:01:24.256Z,101181.84
2022-10-23T05:03:51.237Z,101164.72
2022-10-23T05:06:18.186Z,101174.44
2022-10-23T05:09:14.201Z,101177.00
2022-10-23T05:12:06.434Z,101175.34
2022-10-23T05:14:33.081Z,101166.50
2022-10-23T05:17:04.363Z,101167.66
2022-10-23T05:19:38.352Z,101161.44
2022-10-23T05:22:05.193Z,101158.75
2022-10-23T05:24:49.670Z,101162.78
2022-10-23T05:27:20.217Z,101164.44
2022-10-23T05:29:46.873Z,101149.53
2022-10-23T05:32:14.668Z,101151.41
2022-10-23T05:34:42.728Z,101156.84
2022-10-23T05:37:14.338Z,101154.53
2022-10-23T05:39:41.742Z,101147.13
2022-10-23T05:42:12.656Z,101150.38
2022-10-23T05:44:40.383Z,101133.13
2022-10-23T05:47:25.717Z,101121.09
2022-10-23T05:49:52.325Z,101125.41
2022-10-23T05:52:37.669Z,101116.56
2022-10-23T05:55:25.790Z,101124.97
2022-10-23T05:58:11.089Z,101126.50
2022-10-23T06:01:00.034Z,101124.88
2022-10-23T06:03:47.733Z,101113.22
2022-10-23T06:06:14.377Z,101107.59
2022-10-23T06:08:45.061Z,101120.13
2022-10-23T06:11:14.104Z,101104.00
2022-10-23T06:13:46.255Z,101100.28
2022-10-23T06:16:19.881Z,101098.50
2022-10-23T06:18:47.471Z,101103.50
2022-10-23T06:21:16.687Z,101102.84
2022-10-23T06:23:46.230Z,101105.41
2022-10-23T06:26:51.362Z,101108.41
2022-10-23T06:29:21.640Z,101127.88
2022-10-23T06:31:50.001Z,101118.34
2022-10-23T06:34:17.316Z,101120.72
2022-10-23T06:36:45.751Z,101116.25
2022-10-23T06:39:32.164Z,101107.28
2022-10-23T06:42:25.299Z,101105.00
2022-10-23T06:44:54.722Z,101096.22
2022-10-23T06:47:53.251Z,101091.25
2022-10-23T06:50:38.860Z,101091.53
2022-10-23T06:53:12.379Z,101093.63
2022-10-23T06:55:44.118Z,101079.56
2022-10-23T06:58:10.976Z,101069.84
2022-10-23T07:00:52.387Z,101073.66
2022-10-23T07:03:18.984Z,101051.97
2022-10-23T07:05:47.348Z,101034.13
2022-10-23T07:08:14.676Z,101024.19
2022-10-23T07:10:43.563Z,101015.13
2022-10-23T07:13:11.224Z,101024.69
2022-10-23T07:15:55.090Z,101019.56
2022-10-23T07:18:24.596Z,101000.53
2022-10-23T07:21:20.444Z,100985.66
2022-10-23T07:23:48.611Z,100974.44
2022-10-23T07:26:16.723Z,100972.63
2022-10-23T07:28:45.001Z,100966.63
2022-10-23T07:31:13.192Z,100955.06
2022-10-23T07:34:04.662Z,100951.03
2022-10-23T07:36:31.475Z,100947.25
2022-10-23T07:38:58.172Z,100948.59
2022-10-23T07:41:25.241Z,100953.59
2022-10-23T07:43:51.862Z,100927.28
2022-10-23T07:46:18.512Z,100905.59
2022-10-23T07:48:45.606Z,100899.16
2022-10-23T07:51:15.409Z,100887.78
2022-10-23T07:53:45.635Z,100866.72
2022-10-23T07:56:31.444Z,100868.38
2022-10-23T07:59:18.315Z,100843.75
2022-10-23T08:01:56.728Z,100823.47
2022-10-23T08:04:34.182Z,100801.91
2022-10-23T08:07:09.828Z,100781.41
2022-10-23T08:09:41.338Z,100778.44
2022-10-23T08:12:09.724Z,100774.28
2022-10-23T08:14:36.463Z,100738.31
2022-10-23T08:17:05.073Z,100716.72
2022-10-23T08:19:54.746Z,100692.22
2022-10-23T08:22:21.798Z,100674.81
2022-10-23T08:24:48.500Z,100665.63
2022-10-23T08:27:15.807Z,100643.97
2022-10-23T08:29:45.587Z,100632.94
2022-10-23T08:32:12.267Z,100595.53
2022-10-23T08:34:54.059Z,100562.75
2022-10-23T08:37:23.495Z,100550.66
2022-10-23T08:39:53.229Z,100538.22
2022-10-23T08:42:29.537Z,100530.53
2022-10-23T08:45:14.331Z,100509.78
2022-10-23T08:47:47.381Z,100500.16
2022-10-23T08:50:59.357Z,100488.88
2022-10-23T08:54:11.140Z,100467.31
2022-10-23T08:56:39.610Z,100449.63
2022-10-23T08:59:20.467Z,100439.81
2022-10-23T09:01:52.336Z,100431.56
2022-10-23T09:04:21.421Z,100418.09
2022-10-23T09:06:47.941Z,100413.28
2022-10-23T09:09:51.577Z,100387.31
2022-10-23T09:12:21.640Z,100372.19
2022-10-23T09:15:00.346Z,100349.13
2022-10-23T09:17:26.905Z,100344.38
2022-10-23T09:20:21.297Z,100329.81
2022-10-23T09:22:49.494Z,100330.00
2022-10-23T09:25:22.400Z,100317.88
2022-10-23T09:27:54.777Z,100322.53
2022-10-23T09:30:38.900Z,100307.03
2022-10-23T09:33:16.258Z,100292.16
2022-10-23T09:36:02.769Z,100297.47
2022-10-23T09:38:36.008Z,100285.38
2022-10-23T09:41:21.365Z,100279.53
2022-10-23T09:43:48.169Z,100265.94
2022-10-23T09:46:19.551Z,100252.34
2022-10-23T09:48:46.103Z,100252.81
2022-10-23T09:51:20.159Z,100238.50
2022-10-23T09:53:49.670Z,100225.47
2022-10-23T09:56:34.385Z,100210.34
2022-10-23T09:59:13.161Z,100208.13
2022-10-23T10:02:00.317Z,100203.56
2022-10-23T10:04:59.201Z,100188.16
2022-10-23T10:07:32.279Z,100177.16
2022-10-23T10:10:01.347Z,100167.91
2022-10-23T10:12:43.388Z,100158.59
2022-10-23T10:15:19.144Z,100152.09
2022-10-23T10:18:09.514Z,100142.66
2022-10-23T10:20:46.114Z,100129.03
2022-10-23T10:23:30.889Z,100125.22
2022-10-23T10:26:13.748Z,100117.28
2022-10-23T10:29:14.451Z,100111.06
2022-10-23T10:31:43.968Z,100109.19
2022-10-23T10:34:17.095Z,100102.53
2022-10-23T10:36:46.585Z,100088.44
2022-10-23T10:39:42.426Z,100084.03
2022-10-23T10:42:35.259Z,100078.81
2022-10-23T10:45:27.630Z,100076.94
2022-10-23T10:48:12.565Z,100077.00
2022-10-23T10:51:09.449Z,100071.50
2022-10-23T10:54:00.422Z,100062.88
2022-10-23T10:56:28.314Z,100054.72
2022-10-23T10:59:10.599Z,100051.00
2022-10-23T11:01:42.807Z,100043.66
2022-10-23T11:04:57.840Z,100031.50
2022-10-23T11:07:28.430Z,100031.34
2022-10-23T11:09:56.341Z,100028.56
2022-10-23T11:12:27.532Z,100027.38
2022-10-23T11:14:54.241Z,100025.47
2022-10-23T11:17:27.749Z,100025.28
2022-10-23T11:20:10.210Z,100015.72
2022-10-23T11:22:52.045Z,100003.28
2022-10-23T11:25:40.569Z,100003.41
2022-10-23T11:28:28.290Z,99989.63
2022-10-23T11:31:13.760Z,99973.13
2022-10-23T11:33:55.295Z,99965.31
2022-10-23T11:36:48.588Z,99970.03
2022-10-23T11:39:29.363Z,99965.50
2022-10-23T11:42:06.338Z,99967.91
2022-10-23T11:44:49.756Z,99962.69
2022-10-23T11:47:40.409Z,99955.91
2022-10-23T11:50:07.151Z,99945.38
2022-10-23T11:52:45.437Z,99938.47
2022-10-23T11:55:22.410Z,99925.47
2022-10-23T11:58:04.451Z,99923.16
2022-10-23T12:00:33.488Z,99911.81
2022-10-23T12:03:00.916Z,99907.03
2022-10-23T12:05:37.699Z,99897.69
2022-10-23T12:08:08.235Z,99909.38
2022-10-23T12:10:46.448Z,99904.72
2022-10-23T12:13:28.868Z,99899.81
2022-10-23T12:15:58.497Z,99899.88
2022-10-23T12:18:27.541Z,99898.84
2022-10-23T12:20:58.964Z,99895.16
2022-10-23T12:23:38.443Z,99893.69
2022-10-23T12:26:17.224Z,99884.53
2022-10-23T12:28:50.769Z,99881.84
2022-10-23T12:31:35.816Z,99873.22
2022-10-23T12:34:08.400Z,99864.78
2022-10-23T12:36:41.468Z,99857.66
2022-10-23T12:39:27.164Z,99846.72
2022-10-23T12:41:53.983Z,99852.00
2022-10-23T12:44:25.360Z,99843.00
2022-10-23T12:46:58.246Z,99837.28
2022-10-23T12:49:27.650Z,99832.53
2022-10-23T12:52:05.576Z,99824.38
2022-10-23T12:54:39.295Z,99821.09
2022-10-23T12:57:26.938Z,99801.69
2022-10-23T13:00:00.178Z,99803.47
2022-10-23T13:02:29.363Z,99786.22
2022-10-23T13:04:58.614Z,99774.19
2022-10-23T13:07:30.283Z,99771.47
2022-10-23T13:10:00.039Z,99775.69
2022-10-23T13:12:33.981Z,99783.50
2022-10-23T13:15:05.703Z,99782.41
2022-10-23T13:17:41.648Z,99791.75
2022-10-23T13:20:34.190Z,99800.00
2022-10-23T13:23:21.738Z,99803.47
2022-10-23T13:26:04.602Z,99797.50
2022-10-23T13:28:45.513Z,99783.69
2022-10-23T13:31:14.876Z,99776.38
2022-10-23T13:34:04.380Z,99775.78
2022-10-23T13:36:35.599Z,99778.56
2022-10-23T13:39:13.470Z,99785.94
2022-10-23T13:41:45.433Z,99780.78
2022-10-23T13:44:14.594Z,99774.41
2022-10-23T13:46:41.944Z,99771.44
2022-10-23T13:49:08.645Z,99756.84
2022-10-23T13:51:52.971Z,99753.56
2022-10-23T13:54:22.241Z,99750.91
2022-10-23T13:56:49.312Z,99748.72
2022-10-23T13:59:16.624Z,99747.91
2022-10-23T14:01:44.654Z,99747.75
2022-10-23T14:04:14.714Z,99735.53
2022-10-23T14:06:42.103Z,99742.50
2022-10-23T14:09:12.694Z,99739.03
2022-10-23T14:11:39.935Z,99714.03
2022-10-23T14:14:06.925Z,99719.72
2022-10-23T14:16:36.639Z,99700.53
2022-10-23T14:19:03.581Z,99675.94
2022-10-23T14:21:30.451Z,99680.00
2022-10-23T14:23:57.383Z,99663.09
2022-10-23T14:26:27.517Z,99662.22
2022-10-23T14:28:59.566Z,99661.63
2022-10-23T14:31:29.932Z,99664.41
2022-10-23T14:33:58.689Z,99664.16
2022-10-23T14:36:30.880Z,99673.63
2022-10-23T14:39:05.447Z,99676.06
2022-10-23T14:41:32.143Z,99682.31
2022-10-23T14:43:58.766Z,99663.13
2022-10-23T14:46:25.554Z,99639.34
2022-10-23T14:48:57.428Z,99627.22
2022-10-23T14:51:28.762Z,99638.50
2022-10-23T14:53:59.447Z,99626.59
2022-10-23T14:56:26.531Z,99618.53
2022-10-23T14:58:53.149Z,99611.44
2022-10-23T15:01:19.960Z,99604.88
2022-10-23T15:03:46.773Z,99610.56
2022-10-23T15:06:17.530Z,99610.56
2022-10-23T15:08:45.143Z,99617.78
2022-10-23T15:11:12.793Z,99622.44
2022-10-23T15:13:42.222Z,99615.06
2022-10-23T15:16:10.463Z,99622.59
2022-10-23T15:21:05.958Z,99610.56
2022-10-23T15:23:34.651Z,99588.03
2022-10-23T15:26:03.868Z,99586.97
2022-10-23T15:28:30.941Z,99580.22
2022-10-23T15:30:57.862Z,99575.19
2022-10-23T15:33:24.552Z,99565.22
2022-10-23T15:35:51.844Z,99579.22
2022-10-23T15:38:19.341Z,99585.22
2022-10-23T15:40:46.537Z,99581.66
2022-10-23T15:43:14.443Z,99585.97
2022-10-23T15:45:43.110Z,99601.34
2022-10-23T15:48:15.794Z,99604.75
2022-10-23T15:50:43.104Z,99603.63
2022-10-23T15:53:09.754Z,99606.13
2022-10-23T15:55:42.804Z,99596.94
2022-10-23T15:58:09.747Z,99560.72
2022-10-23T16:00:38.198Z,99548.59
2022-10-23T16:03:04.866Z,99550.19
2022-10-23T16:05:31.500Z,99557.47
2022-10-23T16:08:00.480Z,99581.63
2022-10-23T16:10:27.148Z,99573.50
2022-10-23T16:12:53.852Z,99575.41
2022-10-23T16:15:20.417Z,99569.56
2022-10-23T16:17:47.053Z,99567.19
2022-10-23T16:20:21.037Z,99545.66
2022-10-23T16:22:47.772Z,99550.78
2022-10-23T16:25:14.583Z,99555.31
2022-10-23T16:27:41.476Z,99552.81
2022-10-23T16:30:14.146Z,99553.69
2022-10-23T16:32:41.432Z,99536.72
2022-10-23T16:35:12.315Z,99547.34
2022-10-23T16:37:53.064Z,99555.63
2022-10-23T16:40:20.889Z,99542.81
2022-10-23T16:43:06.447Z,99545.03
2022-10-23T16:45:40.196Z,99551.09
2022-10-23T16:48:06.970Z,99532.66
2022-10-23T16:50:33.734Z,99536.56
2022-10-23T16:53:07.746Z,99546.25
2022-10-23T16:55:34.383Z,99545.34
2022-10-23T16:58:01.104Z,99540.97
2022-10-23T17:00:34.834Z,99535.69
2022-10-23T17:03:04.877Z,99550.81
2022-10-23T17:05:35.384Z,99561.19
2022-10-23T17:08:06.676Z,99577.56
2022-10-23T17:10:33.326Z,99621.59
2022-10-23T17:13:00.005Z,99639.09
2022-10-23T17:15:26.746Z,99633.25
2022-10-23T17:17:53.862Z,99651.91
2022-10-23T17:20:20.409Z,99659.34
2022-10-23T17:22:47.053Z,99645.59
2022-10-23T17:25:13.797Z,99645.47
2022-10-23T17:27:40.459Z,99656.94
2022-10-23T17:30:12.373Z,99676.41
2022-10-23T17:32:44.201Z,99703.84
2022-10-23T17:35:11.087Z,99726.97
2022-10-23T17:37:37.744Z,99743.94
2022-10-23T17:40:06.654Z,99769.06
2022-10-23T17:42:33.210Z,99795.53
2022-10-23T17:44:59.885Z,99823.19
2022-10-23T17:47:26.488Z,99820.06
2022-10-23T17:49:53.080Z,99827.78
2022-10-23T17:52:19.671Z,99863.34
2022-10-23T17:54:46.205Z,99864.94
2022-10-23T17:57:12.961Z,99887.25
2022-10-23T17:59:39.565Z,99907.88
2022-10-23T18:02:07.137Z,99922.91
2022-10-23T18:04:34.499Z,99935.03
2022-10-23T18:07:01.093Z,99941.72
2022-10-23T18:09:27.796Z,99960.19
2022-10-23T18:11:54.471Z,99959.47
2022-10-23T18:14:26.239Z,99986.22
2022-10-23T18:16:55.242Z,100012.84
2022-10-23T18:19:21.826Z,100023.16
2022-10-23T18:21:48.925Z,100045.47
2022-10-23T18:24:17.036Z,100062.22
2022-10-23T18:26:44.275Z,100089.19
2022-10-23T18:29:12.891Z,100116.66
2022-10-23T18:31:39.968Z,100134.94
2022-10-23T18:34:26.746Z,100159.81
2022-10-23T18:36:54.630Z,100192.28
2022-10-23T18:39:25.620Z,100224.56
2022-10-23T18:41:54.958Z,100261.81
2022-10-23T18:44:22.423Z,100299.38
2022-10-23T18:46:49.825Z,100327.84
2022-10-23T18:49:18.109Z,100373.50
2022-10-23T18:51:44.980Z,100404.81
2022-10-23T18:54:14.213Z,100431.78
2022-10-23T18:56:40.895Z,100479.44
2022-10-23T18:59:12.405Z,100516.16
2022-10-23T19:01:39.508Z,100520.97
2022-10-23T19:04:06.606Z,100569.59
2022-10-23T19:06:35.179Z,100604.75
2022-10-23T19:09:05.051Z,100631.72
2022-10-23T19:11:31.646Z,100682.41
2022-10-23T19:14:00.547Z,100709.66
2022-10-23T19:16:31.207Z,100736.47
2022-10-23T19:19:01.554Z,100765.75
2022-10-23T19:21:31.704Z,100807.66
2022-10-23T19:24:04.461Z,100832.78
2022-10-23T19:26:31.450Z,100850.44
2022-10-23T19:28:58.572Z,100857.66
2022-10-23T19:31:26.459Z,100812.56
2022-10-23T19:33:53.492Z,100769.69
2022-10-23T19:36:23.505Z,100800.06
2022-10-23T19:38:50.353Z,100832.94
2022-10-23T19:41:18.352Z,100813.75
2022-10-23T19:43:45.031Z,100804.59
2022-10-23T19:46:12.297Z,100815.19
2022-10-23T19:48:42.396Z,100816.44
2022-10-23T19:51:09.478Z,100811.28
2022-10-23T19:53:36.406Z,100836.53
2022-10-23T19:56:05.311Z,100843.66
2022-10-23T19:58:31.970Z,100842.41
2022-10-23T20:00:58.586Z,100841.97
2022-10-23T20:03:25.261Z,100836.88
2022-10-23T20:05:51.886Z,100824.41
2022-10-23T20:08:18.500Z,100830.84
2022-10-23T20:10:46.585Z,100812.63
2022-10-23T20:13:19.990Z,100801.84
2022-10-23T20:15:47.240Z,100805.56
2022-10-23T20:18:13.829Z,100800.41
2022-10-23T20:20:41.783Z,100806.19
2022-10-23T20:23:08.929Z,100803.75
2022-10-23T20:25:37.609Z,100809.81
2022-10-23T20:28:04.565Z,100799.66
2022-10-23T20:30:31.150Z,100799.22
2022-10-23T20:32:57.913Z,100782.06
2022-10-23T20:35:24.592Z,100786.41
2022-10-23T20:37:53.453Z,100801.94
2022-10-23T20:40:20.037Z,100786.63
2022-10-23T20:42:46.635Z,100790.34
2022-10-23T20:45:13.230Z,100801.94
2022-10-23T20:47:39.860Z,100791.41
2022-10-23T20:50:07.055Z,100779.78
2022-10-23T20:55:05.414Z,100753.88
2022-10-23T20:57:31.979Z,100748.94
2022-10-23T20:59:59.277Z,100743.09
2022-10-23T21:02:25.989Z,100752.44
2022-10-23T21:04:52.600Z,100747.03
2022-10-23T21:07:20.750Z,100729.91
2022-10-23T21:09:47.393Z,100716.28
2022-10-23T21:12:13.968Z,100710.69
2022-10-23T21:14:40.613Z,100709.44
2022-10-23T21:17:08.739Z,100695.44
2022-10-23T21:19:35.346Z,100696.69
2022-10-23T21:22:02.033Z,100694.56
2022-10-23T21:24:28.599Z,100695.09
2022-10-23T21:26:55.184Z,100691.97
2022-10-23T21:29:21.788Z,100681.59
2022-10-23T21:31:56.947Z,100658.28
2022-10-23T21:34:24.337Z,100641.75
2022-10-23T21:37:11.950Z,100643.38
2022-10-23T21:39:38.000Z,100628.75
2022-10-23T21:42:04.787Z,100617.75
2022-10-23T21:44:31.352Z,100626.88
2022-10-23T21:46:57.899Z,100616.34
2022-10-23T21:49:24.468Z,100600.38
2022-10-23T21:51:51.038Z,100584.91
2022-10-23T21:54:17.659Z,100585.13
2022-10-23T21:56:45.373Z,100569.41
2022-10-23T21:59:14.539Z,100571.47
2022-10-23T22:01:45.343Z,100581.81
2022-10-23T22:04:14.217Z,100578.34
2022-10-23T22:06:47.825Z,100587.78
2022-10-23T22:09:16.653Z,100600.19
2022-10-23T22:11:43.333Z,100588.56
2022-10-23T22:14:12.052Z,100613.03
2022-10-23T22:16:38.749Z,100606.78
2022-10-23T22:19:05.334Z,100617.75
2022-10-23T22:21:31.997Z,100617.31
2022-10-23T22:24:00.205Z,100624.34
2022-10-23T22:26:30.265Z,100603.44
2022-10-23T22:28:59.652Z,100615.06
2022-10-23T22:31:29.475Z,100596.19
2022-10-23T22:33:56.681Z,100608.19
2022-10-23T22:36:23.531Z,100591.50
2022-10-23T22:38:50.088Z,100592.91
2022-10-23T22:41:17.303Z,100586.31
2022-10-23T22:43:44.326Z,100580.94
2022-10-23T22:46:16.404Z,100599.28
2022-10-23T22:48:43.739Z,100614.00
2022-10-23T22:51:15.839Z,100608.97
2022-10-23T22:53:43.530Z,100601.16
2022-10-23T22:56:13.217Z,100612.25
2022-10-23T22:58:40.039Z,100586.72
2022-10-23T23:01:16.564Z,100549.34
2022-10-23T23:03:43.308Z,100540.94
2022-10-23T23:06:12.655Z,100527.25
2022-10-23T23:08:40.170Z,100540.00
2022-10-23T23:11:08.407Z,100560.16
2022-10-23T23:13:35.348Z,100543.81
2022-10-23T23:16:02.659Z,100561.81
2022-10-23T23:18:29.842Z,100576.06
2022-10-23T23:21:04.007Z,100584.75
2022-10-23T23:23:30.979Z,100577.59
2022-10-23T23:25:58.128Z,100569.81
2022-10-23T23:28:24.867Z,100561.16
2022-10-23T23:31:02.752Z,100564.28
2022-10-23T23:33:29.327Z,100576.38
2022-10-23T23:35:55.971Z,100578.72
2022-10-23T23:38:23.013Z,100585.41
2022-10-23T23:40:57.813Z,100579.28
2022-10-23T23:43:24.438Z,100598.88
2022-10-23T23:45:53.857Z,100607.63
2022-10-23T23:48:20.524Z,100619.22
2022-10-23T23:50:47.167Z,100632.28
2022-10-23T23:53:13.812Z,100633.75
2022-10-23T23:55:40.625Z,100648.88
2022-10-23T23:58:07.498Z,100657.78
